sensor_id;sensor_type;location;lat;lon;timestamp;temperature;humidity
71801;HTU21D;59647;55.838;37.292;2023-05-16T00:01:53;9.80;60.89
71801;HTU21D;59647;55.838;37.292;2023-05-16T00:04:19;9.76;61.05
71801;HTU21D;59647;55.838;37.292;2023-05-16T00:06:46;9.76;61.41
71801;HTU21D;59647;55.838;37.292;2023-05-16T00:09:12;9.72;61.60
71801;HTU21D;59647;55.838;37.292;2023-05-16T00:11:38;9.69;61.81
71801;HTU21D;59647;55.838;37.292;2023-05-16T00:14:04;9.67;61.91
71801;HTU21D;59647;55.838;37.292;2023-05-16T00:16:30;9.66;61.98
71801;HTU21D;59647;55.838;37.292;2023-05-16T00:18:56;9.63;62.32
71801;HTU21D;59647;55.838;37.292;2023-05-16T00:21:23;9.62;62.82
71801;HTU21D;59647;55.838;37.292;2023-05-16T00:23:49;9.59;62.31
71801;HTU21D;59647;55.838;37.292;2023-05-16T00:26:18;9.59;61.50
71801;HTU21D;59647;55.838;37.292;2023-05-16T00:28:44;9.62;57.60
71801;HTU21D;59647;55.838;37.292;2023-05-16T00:31:10;9.59;61.34
71801;HTU21D;59647;55.838;37.292;2023-05-16T00:33:36;9.56;60.50
71801;HTU21D;59647;55.838;37.292;2023-05-16T00:36:03;9.70;58.38
71801;HTU21D;59647;55.838;37.292;2023-05-16T00:38:29;9.74;59.69
71801;HTU21D;59647;55.838;37.292;2023-05-16T00:40:54;9.95;60.59
71801;HTU21D;59647;55.838;37.292;2023-05-16T00:43:20;10.22;62.63
71801;HTU21D;59647;55.838;37.292;2023-05-16T00:45:49;10.18;62.18
71801;HTU21D;59647;55.838;37.292;2023-05-16T00:48:15;10.03;62.21
71801;HTU21D;59647;55.838;37.292;2023-05-16T00:50:41;10.00;59.94
71801;HTU21D;59647;55.838;37.292;2023-05-16T00:53:08;10.04;60.70
71801;HTU21D;59647;55.838;37.292;2023-05-16T00:55:35;9.99;60.80
71801;HTU21D;59647;55.838;37.292;2023-05-16T00:58:04;9.90;62.27
71801;HTU21D;59647;55.838;37.292;2023-05-16T01:00:30;9.80;62.48
71801;HTU21D;59647;55.838;37.292;2023-05-16T01:02:56;9.75;62.23
71801;HTU21D;59647;55.838;37.292;2023-05-16T01:05:22;9.69;62.36
71801;HTU21D;59647;55.838;37.292;2023-05-16T01:07:48;9.66;62.41
71801;HTU21D;59647;55.838;37.292;2023-05-16T01:10:14;9.62;62.40
71801;HTU21D;59647;55.838;37.292;2023-05-16T01:12:49;9.59;63.37
71801;HTU21D;59647;55.838;37.292;2023-05-16T01:15:23;9.54;63.46
71801;HTU21D;59647;55.838;37.292;2023-05-16T01:18:07;9.55;64.74
71801;HTU21D;59647;55.838;37.292;2023-05-16T01:20:48;9.52;63.93
71801;HTU21D;59647;55.838;37.292;2023-05-16T01:28:21;9.41;62.98
71801;HTU21D;59647;55.838;37.292;2023-05-16T01:30:49;9.33;63.52
71801;HTU21D;59647;55.838;37.292;2023-05-16T01:33:15;9.32;63.76
71801;HTU21D;59647;55.838;37.292;2023-05-16T01:36:12;9.32;66.45
71801;HTU21D;59647;55.838;37.292;2023-05-16T01:38:51;9.30;65.16
71801;HTU21D;59647;55.838;37.292;2023-05-16T01:44:08;9.27;65.29
71801;HTU21D;59647;55.838;37.292;2023-05-16T01:46:37;9.26;64.61
71801;HTU21D;59647;55.838;37.292;2023-05-16T01:54:30;9.32;65.68
71801;HTU21D;59647;55.838;37.292;2023-05-16T01:56:58;9.31;65.40
71801;HTU21D;59647;55.838;37.292;2023-05-16T01:59:26;9.32;65.24
71801;HTU21D;59647;55.838;37.292;2023-05-16T02:01:54;9.27;67.16
71801;HTU21D;59647;55.838;37.292;2023-05-16T02:04:21;9.19;71.22
71801;HTU21D;59647;55.838;37.292;2023-05-16T02:06:50;9.24;67.59
71801;HTU21D;59647;55.838;37.292;2023-05-16T02:09:16;9.50;62.76
71801;HTU21D;59647;55.838;37.292;2023-05-16T02:11:42;9.82;70.09
71801;HTU21D;59647;55.838;37.292;2023-05-16T02:14:10;9.96;67.35
71801;HTU21D;59647;55.838;37.292;2023-05-16T02:16:37;10.10;68.79
71801;HTU21D;59647;55.838;37.292;2023-05-16T02:19:03;10.24;67.90
71801;HTU21D;59647;55.838;37.292;2023-05-16T02:21:50;10.39;66.30
71801;HTU21D;59647;55.838;37.292;2023-05-16T02:24:16;10.49;65.27
71801;HTU21D;59647;55.838;37.292;2023-05-16T02:26:42;10.59;65.05
71801;HTU21D;59647;55.838;37.292;2023-05-16T02:29:08;10.80;65.56
71801;HTU21D;59647;55.838;37.292;2023-05-16T02:31:34;10.95;65.10
71801;HTU21D;59647;55.838;37.292;2023-05-16T02:34:01;11.07;67.30
71801;HTU21D;59647;55.838;37.292;2023-05-16T02:36:27;11.24;65.63
71801;HTU21D;59647;55.838;37.292;2023-05-16T02:38:54;11.31;65.10
71801;HTU21D;59647;55.838;37.292;2023-05-16T02:41:22;11.38;64.48
71801;HTU21D;59647;55.838;37.292;2023-05-16T02:43:49;11.51;64.05
71801;HTU21D;59647;55.838;37.292;2023-05-16T02:46:25;11.69;62.89
71801;HTU21D;59647;55.838;37.292;2023-05-16T02:48:53;11.86;64.38
71801;HTU21D;59647;55.838;37.292;2023-05-16T02:51:20;11.94;64.40
71801;HTU21D;59647;55.838;37.292;2023-05-16T02:53:46;12.03;64.13
71801;HTU21D;59647;55.838;37.292;2023-05-16T02:56:12;12.07;63.95
71801;HTU21D;59647;55.838;37.292;2023-05-16T02:58:40;12.08;63.14
71801;HTU21D;59647;55.838;37.292;2023-05-16T03:01:07;12.08;63.17
71801;HTU21D;59647;55.838;37.292;2023-05-16T03:03:35;12.10;63.46
71801;HTU21D;59647;55.838;37.292;2023-05-16T03:06:02;12.13;63.31
71801;HTU21D;59647;55.838;37.292;2023-05-16T03:08:28;12.15;62.90
71801;HTU21D;59647;55.838;37.292;2023-05-16T03:10:56;12.15;63.15
71801;HTU21D;59647;55.838;37.292;2023-05-16T03:13:22;12.23;62.50
71801;HTU21D;59647;55.838;37.292;2023-05-16T03:15:48;12.34;62.18
71801;HTU21D;59647;55.838;37.292;2023-05-16T03:18:14;12.44;62.63
71801;HTU21D;59647;55.838;37.292;2023-05-16T03:20:42;12.48;62.50
71801;HTU21D;59647;55.838;37.292;2023-05-16T03:23:08;12.58;62.08
71801;HTU21D;59647;55.838;37.292;2023-05-16T03:25:36;12.69;62.28
71801;HTU21D;59647;55.838;37.292;2023-05-16T03:28:06;12.70;63.21
71801;HTU21D;59647;55.838;37.292;2023-05-16T03:30:33;12.70;62.20
71801;HTU21D;59647;55.838;37.292;2023-05-16T03:33:00;12.79;62.07
71801;HTU21D;59647;55.838;37.292;2023-05-16T03:35:27;12.88;62.50
71801;HTU21D;59647;55.838;37.292;2023-05-16T03:37:53;12.99;61.98
71801;HTU21D;59647;55.838;37.292;2023-05-16T03:40:19;13.05;61.80
71801;HTU21D;59647;55.838;37.292;2023-05-16T03:42:46;13.20;61.57
71801;HTU21D;59647;55.838;37.292;2023-05-16T03:45:12;13.33;62.19
71801;HTU21D;59647;55.838;37.292;2023-05-16T03:47:38;13.47;62.15
71801;HTU21D;59647;55.838;37.292;2023-05-16T03:50:05;13.64;62.00
71801;HTU21D;59647;55.838;37.292;2023-05-16T03:52:32;13.86;61.90
71801;HTU21D;59647;55.838;37.292;2023-05-16T03:54:58;14.05;61.18
71801;HTU21D;59647;55.838;37.292;2023-05-16T03:57:26;14.24;61.40
71801;HTU21D;59647;55.838;37.292;2023-05-16T03:59:52;14.45;60.89
71801;HTU21D;59647;55.838;37.292;2023-05-16T04:02:18;14.65;60.11
71801;HTU21D;59647;55.838;37.292;2023-05-16T04:04:44;14.84;59.65
71801;HTU21D;59647;55.838;37.292;2023-05-16T04:07:10;15.03;59.20
71801;HTU21D;59647;55.838;37.292;2023-05-16T04:09:36;15.21;58.90
71801;HTU21D;59647;55.838;37.292;2023-05-16T04:12:02;15.38;58.33
71801;HTU21D;59647;55.838;37.292;2023-05-16T04:14:28;15.52;58.64
71801;HTU21D;59647;55.838;37.292;2023-05-16T04:16:54;15.63;57.91
71801;HTU21D;59647;55.838;37.292;2023-05-16T04:19:20;15.82;57.85
71801;HTU21D;59647;55.838;37.292;2023-05-16T04:21:46;15.95;57.42
71801;HTU21D;59647;55.838;37.292;2023-05-16T04:24:12;16.08;56.97
71801;HTU21D;59647;55.838;37.292;2023-05-16T04:26:38;16.25;56.81
71801;HTU21D;59647;55.838;37.292;2023-05-16T04:29:04;16.39;56.37
71801;HTU21D;59647;55.838;37.292;2023-05-16T04:31:30;16.56;56.19
71801;HTU21D;59647;55.838;37.292;2023-05-16T04:33:56;16.64;55.44
71801;HTU21D;59647;55.838;37.292;2023-05-16T04:36:23;16.76;55.12
71801;HTU21D;59647;55.838;37.292;2023-05-16T04:38:48;16.86;54.83
71801;HTU21D;59647;55.838;37.292;2023-05-16T04:41:14;16.92;53.72
71801;HTU21D;59647;55.838;37.292;2023-05-16T04:43:41;16.96;53.81
71801;HTU21D;59647;55.838;37.292;2023-05-16T04:46:07;17.06;53.65
71801;HTU21D;59647;55.838;37.292;2023-05-16T04:48:34;17.18;53.17
71801;HTU21D;59647;55.838;37.292;2023-05-16T04:51:01;17.26;52.85
71801;HTU21D;59647;55.838;37.292;2023-05-16T04:53:26;17.36;52.15
71801;HTU21D;59647;55.838;37.292;2023-05-16T04:55:53;17.50;52.81
71801;HTU21D;59647;55.838;37.292;2023-05-16T04:58:19;17.68;52.40
71801;HTU21D;59647;55.838;37.292;2023-05-16T05:00:45;17.87;52.51
71801;HTU21D;59647;55.838;37.292;2023-05-16T05:03:12;18.02;48.86
71801;HTU21D;59647;55.838;37.292;2023-05-16T05:05:38;18.10;50.85
71801;HTU21D;59647;55.838;37.292;2023-05-16T05:08:04;18.24;49.33
71801;HTU21D;59647;55.838;37.292;2023-05-16T05:10:31;18.37;50.40
71801;HTU21D;59647;55.838;37.292;2023-05-16T05:12:57;18.51;50.28
71801;HTU21D;59647;55.838;37.292;2023-05-16T05:15:23;18.67;49.40
71801;HTU21D;59647;55.838;37.292;2023-05-16T05:17:49;18.79;48.77
71801;HTU21D;59647;55.838;37.292;2023-05-16T05:20:15;18.91;48.61
71801;HTU21D;59647;55.838;37.292;2023-05-16T05:22:41;19.06;48.74
71801;HTU21D;59647;55.838;37.292;2023-05-16T05:25:07;19.22;48.79
71801;HTU21D;59647;55.838;37.292;2023-05-16T05:27:33;19.40;48.37
71801;HTU21D;59647;55.838;37.292;2023-05-16T05:29:59;19.57;47.96
71801;HTU21D;59647;55.838;37.292;2023-05-16T05:32:25;19.73;48.15
71801;HTU21D;59647;55.838;37.292;2023-05-16T05:34:51;19.96;48.18
71801;HTU21D;59647;55.838;37.292;2023-05-16T05:37:17;20.07;46.69
71801;HTU21D;59647;55.838;37.292;2023-05-16T05:39:43;20.13;46.16
71801;HTU21D;59647;55.838;37.292;2023-05-16T05:42:09;20.25;45.31
71801;HTU21D;59647;55.838;37.292;2023-05-16T05:44:37;20.33;42.17
71801;HTU21D;59647;55.838;37.292;2023-05-16T05:47:04;20.44;43.16
71801;HTU21D;59647;55.838;37.292;2023-05-16T05:49:31;20.56;44.06
71801;HTU21D;59647;55.838;37.292;2023-05-16T05:51:57;20.72;40.97
71801;HTU21D;59647;55.838;37.292;2023-05-16T05:54:23;20.84;39.97
71801;HTU21D;59647;55.838;37.292;2023-05-16T05:56:48;20.94;39.57
71801;HTU21D;59647;55.838;37.292;2023-05-16T05:59:15;21.11;40.80
71801;HTU21D;59647;55.838;37.292;2023-05-16T06:01:41;21.32;35.88
71801;HTU21D;59647;55.838;37.292;2023-05-16T06:04:08;21.48;40.06
71801;HTU21D;59647;55.838;37.292;2023-05-16T06:06:34;21.53;37.30
71801;HTU21D;59647;55.838;37.292;2023-05-16T06:09:01;21.72;39.34
71801;HTU21D;59647;55.838;37.292;2023-05-16T06:11:26;21.85;38.39
71801;HTU21D;59647;55.838;37.292;2023-05-16T06:13:52;22.04;36.12
71801;HTU21D;59647;55.838;37.292;2023-05-16T06:16:18;22.20;37.98
71801;HTU21D;59647;55.838;37.292;2023-05-16T06:18:44;22.25;32.76
71801;HTU21D;59647;55.838;37.292;2023-05-16T06:21:10;22.27;31.27
71801;HTU21D;59647;55.838;37.292;2023-05-16T06:23:36;22.18;31.45
71801;HTU21D;59647;55.838;37.292;2023-05-16T06:26:02;22.14;28.04
71801;HTU21D;59647;55.838;37.292;2023-05-16T06:28:28;22.13;30.91
71801;HTU21D;59647;55.838;37.292;2023-05-16T06:30:55;22.13;33.76
71801;HTU21D;59647;55.838;37.292;2023-05-16T06:33:21;22.14;31.51
71801;HTU21D;59647;55.838;37.292;2023-05-16T06:35:46;22.25;31.80
71801;HTU21D;59647;55.838;37.292;2023-05-16T06:38:17;22.41;32.23
71801;HTU21D;59647;55.838;37.292;2023-05-16T06:40:44;22.54;32.48
71801;HTU21D;59647;55.838;37.292;2023-05-16T06:43:10;22.61;32.73
71801;HTU21D;59647;55.838;37.292;2023-05-16T06:45:39;22.56;32.43
71801;HTU21D;59647;55.838;37.292;2023-05-16T06:48:06;22.62;33.24
71801;HTU21D;59647;55.838;37.292;2023-05-16T06:50:32;22.53;30.24
71801;HTU21D;59647;55.838;37.292;2023-05-16T06:53:00;22.62;30.98
71801;HTU21D;59647;55.838;37.292;2023-05-16T06:55:26;22.67;30.61
71801;HTU21D;59647;55.838;37.292;2023-05-16T06:57:52;22.86;28.31
71801;HTU21D;59647;55.838;37.292;2023-05-16T07:00:19;22.99;31.34
71801;HTU21D;59647;55.838;37.292;2023-05-16T07:02:45;23.10;27.33
71801;HTU21D;59647;55.838;37.292;2023-05-16T07:05:11;23.18;30.90
71801;HTU21D;59647;55.838;37.292;2023-05-16T07:07:37;23.35;30.67
71801;HTU21D;59647;55.838;37.292;2023-05-16T07:10:03;23.34;27.39
71801;HTU21D;59647;55.838;37.292;2023-05-16T07:12:34;23.36;27.25
71801;HTU21D;59647;55.838;37.292;2023-05-16T07:15:01;23.30;26.33
71801;HTU21D;59647;55.838;37.292;2023-05-16T07:17:27;23.35;27.61
71801;HTU21D;59647;55.838;37.292;2023-05-16T07:19:52;23.32;28.97
71801;HTU21D;59647;55.838;37.292;2023-05-16T07:22:18;23.44;28.94
71801;HTU21D;59647;55.838;37.292;2023-05-16T07:24:44;23.65;28.61
71801;HTU21D;59647;55.838;37.292;2023-05-16T07:27:10;23.90;28.70
71801;HTU21D;59647;55.838;37.292;2023-05-16T07:29:37;23.91;28.63
71801;HTU21D;59647;55.838;37.292;2023-05-16T07:32:03;23.85;26.94
71801;HTU21D;59647;55.838;37.292;2023-05-16T07:34:29;23.65;25.27
71801;HTU21D;59647;55.838;37.292;2023-05-16T07:36:56;23.62;24.18
71801;HTU21D;59647;55.838;37.292;2023-05-16T07:39:21;23.70;26.26
71801;HTU21D;59647;55.838;37.292;2023-05-16T07:41:47;23.68;27.98
71801;HTU21D;59647;55.838;37.292;2023-05-16T07:44:13;23.83;27.25
71801;HTU21D;59647;55.838;37.292;2023-05-16T07:46:39;24.02;25.54
71801;HTU21D;59647;55.838;37.292;2023-05-16T07:49:05;24.19;27.17
71801;HTU21D;59647;55.838;37.292;2023-05-16T07:51:31;24.41;26.64
71801;HTU21D;59647;55.838;37.292;2023-05-16T07:53:57;24.58;28.10
71801;HTU21D;59647;55.838;37.292;2023-05-16T07:56:23;24.59;25.25
71801;HTU21D;59647;55.838;37.292;2023-05-16T07:58:48;24.42;24.44
71801;HTU21D;59647;55.838;37.292;2023-05-16T08:01:16;24.33;22.00
71801;HTU21D;59647;55.838;37.292;2023-05-16T08:03:43;24.41;22.93
71801;HTU21D;59647;55.838;37.292;2023-05-16T08:06:09;24.46;23.25
71801;HTU21D;59647;55.838;37.292;2023-05-16T08:08:35;24.56;24.91
71801;HTU21D;59647;55.838;37.292;2023-05-16T08:11:01;24.68;24.01
71801;HTU21D;59647;55.838;37.292;2023-05-16T08:13:27;24.66;25.04
71801;HTU21D;59647;55.838;37.292;2023-05-16T08:15:53;24.98;25.36
71801;HTU21D;59647;55.838;37.292;2023-05-16T08:18:18;25.20;21.83
71801;HTU21D;59647;55.838;37.292;2023-05-16T08:20:44;25.20;21.98
71801;HTU21D;59647;55.838;37.292;2023-05-16T08:23:10;25.28;20.57
71801;HTU21D;59647;55.838;37.292;2023-05-16T08:25:36;25.25;20.76
71801;HTU21D;59647;55.838;37.292;2023-05-16T08:28:02;25.36;23.91
71801;HTU21D;59647;55.838;37.292;2023-05-16T08:30:28;25.33;23.75
71801;HTU21D;59647;55.838;37.292;2023-05-16T08:32:54;25.32;22.51
71801;HTU21D;59647;55.838;37.292;2023-05-16T08:35:20;25.49;22.81
71801;HTU21D;59647;55.838;37.292;2023-05-16T08:37:46;25.48;23.08
71801;HTU21D;59647;55.838;37.292;2023-05-16T08:40:12;25.50;23.30
71801;HTU21D;59647;55.838;37.292;2023-05-16T08:42:40;25.56;21.85
71801;HTU21D;59647;55.838;37.292;2023-05-16T08:45:07;25.64;21.94
71801;HTU21D;59647;55.838;37.292;2023-05-16T08:47:33;25.71;19.89
71801;HTU21D;59647;55.838;37.292;2023-05-16T08:50:02;25.72;21.61
71801;HTU21D;59647;55.838;37.292;2023-05-16T08:52:31;25.78;22.24
71801;HTU21D;59647;55.838;37.292;2023-05-16T08:55:02;25.82;22.27
71801;HTU21D;59647;55.838;37.292;2023-05-16T08:57:37;25.67;19.98
71801;HTU21D;59647;55.838;37.292;2023-05-16T09:00:07;25.64;21.62
71801;HTU21D;59647;55.838;37.292;2023-05-16T09:02:50;25.59;22.28
71801;HTU21D;59647;55.838;37.292;2023-05-16T09:05:17;25.77;20.89
71801;HTU21D;59647;55.838;37.292;2023-05-16T09:07:44;25.99;21.08
71801;HTU21D;59647;55.838;37.292;2023-05-16T09:10:11;26.01;20.88
71801;HTU21D;59647;55.838;37.292;2023-05-16T09:12:38;25.88;21.59
71801;HTU21D;59647;55.838;37.292;2023-05-16T09:15:06;25.98;22.06
71801;HTU21D;59647;55.838;37.292;2023-05-16T09:17:38;25.91;19.62
71801;HTU21D;59647;55.838;37.292;2023-05-16T09:20:15;25.96;20.11
71801;HTU21D;59647;55.838;37.292;2023-05-16T09:22:56;26.01;18.83
71801;HTU21D;59647;55.838;37.292;2023-05-16T09:25:25;26.06;22.06
71801;HTU21D;59647;55.838;37.292;2023-05-16T09:27:52;26.15;20.68
71801;HTU21D;59647;55.838;37.292;2023-05-16T09:30:26;26.06;20.70
71801;HTU21D;59647;55.838;37.292;2023-05-16T09:32:52;26.16;20.16
71801;HTU21D;59647;55.838;37.292;2023-05-16T09:35:20;26.31;20.92
71801;HTU21D;59647;55.838;37.292;2023-05-16T09:37:50;26.37;20.99
71801;HTU21D;59647;55.838;37.292;2023-05-16T09:40:22;26.50;19.65
71801;HTU21D;59647;55.838;37.292;2023-05-16T09:43:03;26.67;19.50
71801;HTU21D;59647;55.838;37.292;2023-05-16T09:45:31;26.64;21.60
71801;HTU21D;59647;55.838;37.292;2023-05-16T09:48:04;26.41;19.96
71801;HTU21D;59647;55.838;37.292;2023-05-16T09:50:35;26.56;21.21
71801;HTU21D;59647;55.838;37.292;2023-05-16T09:53:02;26.34;21.38
71801;HTU21D;59647;55.838;37.292;2023-05-16T09:55:29;25.98;19.85
71801;HTU21D;59647;55.838;37.292;2023-05-16T09:57:55;26.18;21.37
71801;HTU21D;59647;55.838;37.292;2023-05-16T10:00:21;26.23;21.08
71801;HTU21D;59647;55.838;37.292;2023-05-16T10:02:48;26.40;20.79
71801;HTU21D;59647;55.838;37.292;2023-05-16T10:05:15;26.46;18.73
71801;HTU21D;59647;55.838;37.292;2023-05-16T10:07:43;26.17;21.65
71801;HTU21D;59647;55.838;37.292;2023-05-16T10:10:10;25.95;21.01
71801;HTU21D;59647;55.838;37.292;2023-05-16T10:12:38;26.32;22.00
71801;HTU21D;59647;55.838;37.292;2023-05-16T10:15:04;26.55;21.12
71801;HTU21D;59647;55.838;37.292;2023-05-16T10:17:35;26.76;22.25
71801;HTU21D;59647;55.838;37.292;2023-05-16T10:20:06;26.58;21.02
71801;HTU21D;59647;55.838;37.292;2023-05-16T10:22:34;26.42;21.66
71801;HTU21D;59647;55.838;37.292;2023-05-16T10:25:11;26.48;21.58
71801;HTU21D;59647;55.838;37.292;2023-05-16T10:27:40;26.61;19.51
71801;HTU21D;59647;55.838;37.292;2023-05-16T10:30:07;26.68;21.10
71801;HTU21D;59647;55.838;37.292;2023-05-16T10:32:35;26.96;21.11
71801;HTU21D;59647;55.838;37.292;2023-05-16T10:35:03;27.02;20.82
71801;HTU21D;59647;55.838;37.292;2023-05-16T10:37:31;27.02;19.89
71801;HTU21D;59647;55.838;37.292;2023-05-16T10:39:59;27.16;20.95
71801;HTU21D;59647;55.838;37.292;2023-05-16T10:42:26;27.09;19.59
71801;HTU21D;59647;55.838;37.292;2023-05-16T10:45:08;27.01;20.24
71801;HTU21D;59647;55.838;37.292;2023-05-16T10:47:34;27.19;21.00
71801;HTU21D;59647;55.838;37.292;2023-05-16T10:50:00;27.29;19.88
71801;HTU21D;59647;55.838;37.292;2023-05-16T10:52:32;27.27;20.28
71801;HTU21D;59647;55.838;37.292;2023-05-16T10:55:02;27.38;20.80
71801;HTU21D;59647;55.838;37.292;2023-05-16T10:57:32;27.39;18.85
71801;HTU21D;59647;55.838;37.292;2023-05-16T10:59:58;27.28;20.41
71801;HTU21D;59647;55.838;37.292;2023-05-16T11:02:32;27.28;19.29
71801;HTU21D;59647;55.838;37.292;2023-05-16T11:05:01;27.36;18.40
71801;HTU21D;59647;55.838;37.292;2023-05-16T11:07:34;27.19;18.15
71801;HTU21D;59647;55.838;37.292;2023-05-16T11:10:13;27.39;20.15
71801;HTU21D;59647;55.838;37.292;2023-05-16T11:12:50;27.44;18.00
71801;HTU21D;59647;55.838;37.292;2023-05-16T11:15:25;27.41;16.76
71801;HTU21D;59647;55.838;37.292;2023-05-16T11:20:35;27.32;18.83
71801;HTU21D;59647;55.838;37.292;2023-05-16T11:25:57;27.71;16.79
71801;HTU21D;59647;55.838;37.292;2023-05-16T11:28:25;27.71;18.31
71801;HTU21D;59647;55.838;37.292;2023-05-16T11:30:53;27.56;15.51
71801;HTU21D;59647;55.838;37.292;2023-05-16T11:33:21;27.73;19.02
71801;HTU21D;59647;55.838;37.292;2023-05-16T11:36:06;27.96;18.30
71801;HTU21D;59647;55.838;37.292;2023-05-16T11:38:33;28.09;18.12
71801;HTU21D;59647;55.838;37.292;2023-05-16T11:41:04;28.20;19.39
71801;HTU21D;59647;55.838;37.292;2023-05-16T11:43:37;28.42;18.28
71801;HTU21D;59647;55.838;37.292;2023-05-16T11:46:03;28.45;18.67
71801;HTU21D;59647;55.838;37.292;2023-05-16T11:48:29;28.61;18.72
71801;HTU21D;59647;55.838;37.292;2023-05-16T11:50:55;28.67;17.53
71801;HTU21D;59647;55.838;37.292;2023-05-16T11:53:21;28.40;17.12
71801;HTU21D;59647;55.838;37.292;2023-05-16T11:55:48;28.31;18.49
71801;HTU21D;59647;55.838;37.292;2023-05-16T11:58:18;28.53;18.94
71801;HTU21D;59647;55.838;37.292;2023-05-16T12:00:49;28.68;18.34
71801;HTU21D;59647;55.838;37.292;2023-05-16T12:03:16;28.60;18.03
71801;HTU21D;59647;55.838;37.292;2023-05-16T12:05:53;28.39;17.56
71801;HTU21D;59647;55.838;37.292;2023-05-16T12:08:20;28.26;18.08
71801;HTU21D;59647;55.838;37.292;2023-05-16T12:10:52;28.31;18.90
71801;HTU21D;59647;55.838;37.292;2023-05-16T12:13:21;28.42;17.95
71801;HTU21D;59647;55.838;37.292;2023-05-16T12:15:50;28.42;19.02
71801;HTU21D;59647;55.838;37.292;2023-05-16T12:18:17;28.46;18.52
71801;HTU21D;59647;55.838;37.292;2023-05-16T12:20:43;28.33;18.18
71801;HTU21D;59647;55.838;37.292;2023-05-16T12:23:13;28.23;18.47
71801;HTU21D;59647;55.838;37.292;2023-05-16T12:25:46;28.32;19.23
71801;HTU21D;59647;55.838;37.292;2023-05-16T12:28:14;28.50;19.16
71801;HTU21D;59647;55.838;37.292;2023-05-16T12:30:42;28.53;18.71
71801;HTU21D;59647;55.838;37.292;2023-05-16T12:33:11;28.26;16.85
71801;HTU21D;59647;55.838;37.292;2023-05-16T12:35:42;28.44;17.81
71801;HTU21D;59647;55.838;37.292;2023-05-16T12:38:12;28.62;18.44
71801;HTU21D;59647;55.838;37.292;2023-05-16T12:40:41;28.65;19.34
71801;HTU21D;59647;55.838;37.292;2023-05-16T12:45:40;28.54;18.24
71801;HTU21D;59647;55.838;37.292;2023-05-16T12:48:13;28.49;19.16
71801;HTU21D;59647;55.838;37.292;2023-05-16T12:50:40;28.62;19.15
71801;HTU21D;59647;55.838;37.292;2023-05-16T12:53:11;28.74;19.16
71801;HTU21D;59647;55.838;37.292;2023-05-16T12:55:37;28.83;18.15
71801;HTU21D;59647;55.838;37.292;2023-05-16T12:58:03;28.82;19.02
71801;HTU21D;59647;55.838;37.292;2023-05-16T13:00:29;28.63;17.39
71801;HTU21D;59647;55.838;37.292;2023-05-16T13:02:56;28.57;19.21
71801;HTU21D;59647;55.838;37.292;2023-05-16T13:05:22;28.70;19.04
71801;HTU21D;59647;55.838;37.292;2023-05-16T13:07:49;28.82;18.48
71801;HTU21D;59647;55.838;37.292;2023-05-16T13:10:18;28.84;18.98
71801;HTU21D;59647;55.838;37.292;2023-05-16T13:12:44;28.90;18.88
71801;HTU21D;59647;55.838;37.292;2023-05-16T13:15:10;28.92;19.44
71801;HTU21D;59647;55.838;37.292;2023-05-16T13:17:37;28.72;17.46
71801;HTU21D;59647;55.838;37.292;2023-05-16T13:20:04;28.53;18.00
71801;HTU21D;59647;55.838;37.292;2023-05-16T13:22:36;28.59;19.05
71801;HTU21D;59647;55.838;37.292;2023-05-16T13:25:03;28.70;18.66
71801;HTU21D;59647;55.838;37.292;2023-05-16T13:27:32;28.75;19.09
71801;HTU21D;59647;55.838;37.292;2023-05-16T13:29:59;28.72;18.63
71801;HTU21D;59647;55.838;37.292;2023-05-16T13:32:25;28.83;18.85
71801;HTU21D;59647;55.838;37.292;2023-05-16T13:34:51;28.99;19.21
71801;HTU21D;59647;55.838;37.292;2023-05-16T13:37:17;29.27;19.58
71801;HTU21D;59647;55.838;37.292;2023-05-16T13:39:43;29.18;19.05
71801;HTU21D;59647;55.838;37.292;2023-05-16T13:42:10;29.23;18.93
71801;HTU21D;59647;55.838;37.292;2023-05-16T13:44:36;29.11;18.54
71801;HTU21D;59647;55.838;37.292;2023-05-16T13:47:02;28.92;18.65
71801;HTU21D;59647;55.838;37.292;2023-05-16T13:49:28;28.90;19.20
71801;HTU21D;59647;55.838;37.292;2023-05-16T13:51:54;28.88;19.23
71801;HTU21D;59647;55.838;37.292;2023-05-16T13:54:22;28.77;18.94
71801;HTU21D;59647;55.838;37.292;2023-05-16T13:56:48;28.74;18.54
71801;HTU21D;59647;55.838;37.292;2023-05-16T13:59:14;28.72;17.95
71801;HTU21D;59647;55.838;37.292;2023-05-16T14:01:40;28.83;19.20
71801;HTU21D;59647;55.838;37.292;2023-05-16T14:04:06;28.95;17.35
71801;HTU21D;59647;55.838;37.292;2023-05-16T14:06:32;28.93;18.42
71801;HTU21D;59647;55.838;37.292;2023-05-16T14:08:58;28.98;18.47
71801;HTU21D;59647;55.838;37.292;2023-05-16T14:11:24;28.80;18.66
71801;HTU21D;59647;55.838;37.292;2023-05-16T14:13:53;28.83;18.76
71801;HTU21D;59647;55.838;37.292;2023-05-16T14:16:19;28.77;18.11
71801;HTU21D;59647;55.838;37.292;2023-05-16T14:18:46;28.68;18.04
71801;HTU21D;59647;55.838;37.292;2023-05-16T14:21:11;28.78;18.87
71801;HTU21D;59647;55.838;37.292;2023-05-16T14:23:38;28.77;18.88
71801;HTU21D;59647;55.838;37.292;2023-05-16T14:26:05;28.83;18.56
71801;HTU21D;59647;55.838;37.292;2023-05-16T14:28:31;28.82;18.38
71801;HTU21D;59647;55.838;37.292;2023-05-16T14:31:00;28.67;18.78
71801;HTU21D;59647;55.838;37.292;2023-05-16T14:33:26;28.48;18.14
71801;HTU21D;59647;55.838;37.292;2023-05-16T14:35:52;28.41;18.82
71801;HTU21D;59647;55.838;37.292;2023-05-16T14:38:18;28.39;18.88
71801;HTU21D;59647;55.838;37.292;2023-05-16T14:40:46;28.40;18.84
71801;HTU21D;59647;55.838;37.292;2023-05-16T14:43:12;28.28;18.96
71801;HTU21D;59647;55.838;37.292;2023-05-16T14:45:38;28.10;19.28
71801;HTU21D;59647;55.838;37.292;2023-05-16T14:48:05;27.65;19.28
71801;HTU21D;59647;55.838;37.292;2023-05-16T14:50:31;27.27;19.70
71801;HTU21D;59647;55.838;37.292;2023-05-16T14:52:57;27.10;19.89
71801;HTU21D;59647;55.838;37.292;2023-05-16T14:55:23;26.79;19.95
71801;HTU21D;59647;55.838;37.292;2023-05-16T14:57:49;26.39;20.21
71801;HTU21D;59647;55.838;37.292;2023-05-16T15:00:15;26.15;20.55
71801;HTU21D;59647;55.838;37.292;2023-05-16T15:02:44;25.98;20.69
71801;HTU21D;59647;55.838;37.292;2023-05-16T15:05:10;25.73;20.81
71801;HTU21D;59647;55.838;37.292;2023-05-16T15:07:36;25.54;21.15
71801;HTU21D;59647;55.838;37.292;2023-05-16T15:10:02;25.43;21.12
71801;HTU21D;59647;55.838;37.292;2023-05-16T15:12:30;25.24;21.37
71801;HTU21D;59647;55.838;37.292;2023-05-16T15:14:56;25.05;21.50
71801;HTU21D;59647;55.838;37.292;2023-05-16T15:17:21;24.85;21.56
71801;HTU21D;59647;55.838;37.292;2023-05-16T15:19:47;24.66;21.87
71801;HTU21D;59647;55.838;37.292;2023-05-16T15:22:13;24.57;22.16
71801;HTU21D;59647;55.838;37.292;2023-05-16T15:24:39;24.48;22.18
71801;HTU21D;59647;55.838;37.292;2023-05-16T15:27:05;24.38;22.35